sensor_id;sensor_type;location;lat;lon;timestamp;temperature;humidity
2495;DHT22;1258;48.336;14.322;2024-03-02T00:00:38;4.40;99.90
2495;DHT22;1258;48.336;14.322;2024-03-02T00:03:07;4.50;99.90
2495;DHT22;1258;48.336;14.322;2024-03-02T00:05:35;4.30;99.90
2495;DHT22;1258;48.336;14.322;2024-03-02T00:08:05;4.40;99.90
2495;DHT22;1258;48.336;14.322;2024-03-02T00:10:37;4.40;99.90
2495;DHT22;1258;48.336;14.322;2024-03-02T00:13:05;4.40;99.90
2495;DHT22;1258;48.336;14.322;2024-03-02T00:15:45;4.30;99.90
2495;DHT22;1258;48.336;14.322;2024-03-02T00:18:13;4.10;99.90
2495;DHT22;1258;48.336;14.322;2024-03-02T00:20:41;4.20;99.90
2495;DHT22;1258;48.336;14.322;2024-03-02T00:23:10;4.30;99.90
2495;DHT22;1258;48.336;14.322;2024-03-02T00:25:41;4.30;99.90
2495;DHT22;1258;48.336;14.322;2024-03-02T00:28:14;4.40;99.90
2495;DHT22;1258;48.336;14.322;2024-03-02T00:30:55;4.40;99.90
2495;DHT22;1258;48.336;14.322;2024-03-02T00:33:23;4.30;99.90
2495;DHT22;1258;48.336;14.322;2024-03-02T00:35:51;4.30;99.90
2495;DHT22;1258;48.336;14.322;2024-03-02T00:38:19;4.20;99.90
2495;DHT22;1258;48.336;14.322;2024-03-02T00:40:46;4.10;99.90
2495;DHT22;1258;48.336;14.322;2024-03-02T00:43:41;4.20;99.90
2495;DHT22;1258;48.336;14.322;2024-03-02T00:46:08;4.20;99.90
2495;DHT22;1258;48.336;14.322;2024-03-02T00:48:35;4.10;99.90
2495;DHT22;1258;48.336;14.322;2024-03-02T00:51:03;3.60;99.90
2495;DHT22;1258;48.336;14.322;2024-03-02T00:53:32;3.30;99.90
2495;DHT22;1258;48.336;14.322;2024-03-02T00:55:59;3.40;99.90
2495;DHT22;1258;48.336;14.322;2024-03-02T00:58:27;3.40;99.90
2495;DHT22;1258;48.336;14.322;2024-03-02T01:00:54;3.20;99.90
2495;DHT22;1258;48.336;14.322;2024-03-02T01:03:21;3.40;99.90
2495;DHT22;1258;48.336;14.322;2024-03-02T01:05:47;3.70;99.90
2495;DHT22;1258;48.336;14.322;2024-03-02T01:08:14;3.80;99.90
2495;DHT22;1258;48.336;14.322;2024-03-02T01:10:43;3.90;99.90
2495;DHT22;1258;48.336;14.322;2024-03-02T01:13:09;3.90;99.90
2495;DHT22;1258;48.336;14.322;2024-03-02T01:15:36;3.90;99.90
2495;DHT22;1258;48.336;14.322;2024-03-02T01:18:04;3.80;99.90
2495;DHT22;1258;48.336;14.322;2024-03-02T01:20:31;3.90;99.90
2495;DHT22;1258;48.336;14.322;2024-03-02T01:22:57;3.80;99.90
2495;DHT22;1258;48.336;14.322;2024-03-02T01:25:23;3.80;99.90
2495;DHT22;1258;48.336;14.322;2024-03-02T01:27:52;3.80;99.90
2495;DHT22;1258;48.336;14.322;2024-03-02T01:30:18;3.80;99.90
2495;DHT22;1258;48.336;14.322;2024-03-02T01:32:45;3.70;99.90
2495;DHT22;1258;48.336;14.322;2024-03-02T01:35:12;3.70;99.90
2495;DHT22;1258;48.336;14.322;2024-03-02T01:37:40;3.60;99.90
2495;DHT22;1258;48.336;14.322;2024-03-02T01:40:08;3.70;99.90
2495;DHT22;1258;48.336;14.322;2024-03-02T01:42:36;3.80;99.90
2495;DHT22;1258;48.336;14.322;2024-03-02T01:45:06;3.80;99.90
2495;DHT22;1258;48.336;14.322;2024-03-02T01:47:33;3.80;99.90
2495;DHT22;1258;48.336;14.322;2024-03-02T01:50:00;3.80;99.90
2495;DHT22;1258;48.336;14.322;2024-03-02T01:52:27;3.60;99.90
2495;DHT22;1258;48.336;14.322;2024-03-02T01:54:55;3.60;99.90
2495;DHT22;1258;48.336;14.322;2024-03-02T01:57:22;3.60;99.90
2495;DHT22;1258;48.336;14.322;2024-03-02T01:59:49;3.60;99.90
2495;DHT22;1258;48.336;14.322;2024-03-02T02:02:17;3.70;99.90
2495;DHT22;1258;48.336;14.322;2024-03-02T02:04:44;3.80;99.90
2495;DHT22;1258;48.336;14.322;2024-03-02T02:07:11;3.90;99.90
2495;DHT22;1258;48.336;14.322;2024-03-02T02:09:40;4.00;99.90
2495;DHT22;1258;48.336;14.322;2024-03-02T02:12:08;3.90;99.90
2495;DHT22;1258;48.336;14.322;2024-03-02T02:14:35;3.90;99.90
2495;DHT22;1258;48.336;14.322;2024-03-02T02:17:01;3.90;99.90
2495;DHT22;1258;48.336;14.322;2024-03-02T02:19:30;3.90;99.90
2495;DHT22;1258;48.336;14.322;2024-03-02T02:21:58;3.90;99.90
2495;DHT22;1258;48.336;14.322;2024-03-02T02:24:25;4.00;99.90
2495;DHT22;1258;48.336;14.322;2024-03-02T02:26:52;3.90;99.90
2495;DHT22;1258;48.336;14.322;2024-03-02T02:29:19;3.90;99.90
2495;DHT22;1258;48.336;14.322;2024-03-02T02:31:45;3.90;99.90
2495;DHT22;1258;48.336;14.322;2024-03-02T02:34:14;4.00;99.90
2495;DHT22;1258;48.336;14.322;2024-03-02T02:36:41;3.90;99.90
2495;DHT22;1258;48.336;14.322;2024-03-02T02:39:12;3.90;99.90
2495;DHT22;1258;48.336;14.322;2024-03-02T02:41:40;3.90;99.90
2495;DHT22;1258;48.336;14.322;2024-03-02T02:44:06;4.10;99.90
2495;DHT22;1258;48.336;14.322;2024-03-02T02:46:33;4.10;99.90
2495;DHT22;1258;48.336;14.322;2024-03-02T02:49:00;4.20;99.90
2495;DHT22;1258;48.336;14.322;2024-03-02T02:51:27;4.20;99.90
2495;DHT22;1258;48.336;14.322;2024-03-02T02:53:54;4.20;99.90
2495;DHT22;1258;48.336;14.322;2024-03-02T02:56:22;4.20;99.90
2495;DHT22;1258;48.336;14.322;2024-03-02T02:58:49;4.20;99.90
2495;DHT22;1258;48.336;14.322;2024-03-02T03:01:16;4.20;99.90
2495;DHT22;1258;48.336;14.322;2024-03-02T03:03:43;4.30;99.90
2495;DHT22;1258;48.336;14.322;2024-03-02T03:06:11;4.30;99.90
2495;DHT22;1258;48.336;14.322;2024-03-02T03:08:38;4.30;99.90
2495;DHT22;1258;48.336;14.322;2024-03-02T03:11:05;4.30;99.90
2495;DHT22;1258;48.336;14.322;2024-03-02T03:13:34;4.30;99.90
2495;DHT22;1258;48.336;14.322;2024-03-02T03:16:01;4.20;99.90
2495;DHT22;1258;48.336;14.322;2024-03-02T03:18:29;4.20;99.90
2495;DHT22;1258;48.336;14.322;2024-03-02T03:20:55;4.20;99.90
2495;DHT22;1258;48.336;14.322;2024-03-02T03:23:21;4.00;99.90
2495;DHT22;1258;48.336;14.322;2024-03-02T03:25:49;4.00;99.90
2495;DHT22;1258;48.336;14.322;2024-03-02T03:28:16;4.10;99.90
2495;DHT22;1258;48.336;14.322;2024-03-02T03:30:44;4.00;99.90
2495;DHT22;1258;48.336;14.322;2024-03-02T03:33:11;3.80;99.90
2495;DHT22;1258;48.336;14.322;2024-03-02T03:35:39;4.00;99.90
2495;DHT22;1258;48.336;14.322;2024-03-02T03:38:05;4.00;99.90
2495;DHT22;1258;48.336;14.322;2024-03-02T03:40:32;4.00;99.90
2495;DHT22;1258;48.336;14.322;2024-03-02T03:42:59;3.90;99.90
2495;DHT22;1258;48.336;14.322;2024-03-02T03:45:26;3.90;99.90
2495;DHT22;1258;48.336;14.322;2024-03-02T03:47:54;3.90;99.90
2495;DHT22;1258;48.336;14.322;2024-03-02T03:50:21;3.80;99.90
2495;DHT22;1258;48.336;14.322;2024-03-02T03:52:48;3.70;99.90
2495;DHT22;1258;48.336;14.322;2024-03-02T03:55:15;3.70;99.90
2495;DHT22;1258;48.336;14.322;2024-03-02T03:57:42;3.50;99.90
2495;DHT22;1258;48.336;14.322;2024-03-02T04:00:09;3.40;99.90
2495;DHT22;1258;48.336;14.322;2024-03-02T04:02:37;3.40;99.90
2495;DHT22;1258;48.336;14.322;2024-03-02T04:05:06;3.60;99.90
2495;DHT22;1258;48.336;14.322;2024-03-02T04:07:36;3.70;99.90
2495;DHT22;1258;48.336;14.322;2024-03-02T04:10:07;3.70;99.90
2495;DHT22;1258;48.336;14.322;2024-03-02T04:12:35;3.70;99.90
2495;DHT22;1258;48.336;14.322;2024-03-02T04:15:04;3.80;99.90
2495;DHT22;1258;48.336;14.322;2024-03-02T04:17:32;3.60;99.90
2495;DHT22;1258;48.336;14.322;2024-03-02T04:19:59;3.70;99.90
2495;DHT22;1258;48.336;14.322;2024-03-02T04:22:27;3.40;99.90
2495;DHT22;1258;48.336;14.322;2024-03-02T04:24:54;3.30;99.90
2495;DHT22;1258;48.336;14.322;2024-03-02T04:27:21;3.40;99.90
2495;DHT22;1258;48.336;14.322;2024-03-02T04:29:48;3.20;99.90
2495;DHT22;1258;48.336;14.322;2024-03-02T04:32:15;3.10;99.90
2495;DHT22;1258;48.336;14.322;2024-03-02T04:34:42;3.00;99.90
2495;DHT22;1258;48.336;14.322;2024-03-02T04:37:10;3.10;99.90
2495;DHT22;1258;48.336;14.322;2024-03-02T04:39:39;3.20;99.90
2495;DHT22;1258;48.336;14.322;2024-03-02T04:42:06;3.20;99.90
2495;DHT22;1258;48.336;14.322;2024-03-02T04:44:33;3.20;99.90
2495;DHT22;1258;48.336;14.322;2024-03-02T04:46:59;3.20;99.90
2495;DHT22;1258;48.336;14.322;2024-03-02T04:49:26;3.20;99.90
2495;DHT22;1258;48.336;14.322;2024-03-02T04:51:53;3.20;99.90
2495;DHT22;1258;48.336;14.322;2024-03-02T04:54:20;3.20;99.90
2495;DHT22;1258;48.336;14.322;2024-03-02T04:56:48;3.20;99.90
2495;DHT22;1258;48.336;14.322;2024-03-02T04:59:16;3.20;99.90
2495;DHT22;1258;48.336;14.322;2024-03-02T05:01:43;3.10;99.90
2495;DHT22;1258;48.336;14.322;2024-03-02T05:04:10;3.30;99.90
2495;DHT22;1258;48.336;14.322;2024-03-02T05:06:38;3.30;99.90
2495;DHT22;1258;48.336;14.322;2024-03-02T05:09:06;3.30;99.90
2495;DHT22;1258;48.336;14.322;2024-03-02T05:11:32;3.30;99.90
2495;DHT22;1258;48.336;14.322;2024-03-02T05:14:18;3.20;99.90
2495;DHT22;1258;48.336;14.322;2024-03-02T05:16:45;2.80;99.90
2495;DHT22;1258;48.336;14.322;2024-03-02T05:19:12;2.80;99.90
2495;DHT22;1258;48.336;14.322;2024-03-02T05:21:38;2.50;99.90
2495;DHT22;1258;48.336;14.322;2024-03-02T05:24:05;2.40;99.90
2495;DHT22;1258;48.336;14.322;2024-03-02T05:26:32;2.50;99.90
2495;DHT22;1258;48.336;14.322;2024-03-02T05:28:59;2.40;99.90
2495;DHT22;1258;48.336;14.322;2024-03-02T05:31:27;2.30;99.90
2495;DHT22;1258;48.336;14.322;2024-03-02T05:33:54;2.20;99.90
2495;DHT22;1258;48.336;14.322;2024-03-02T05:36:21;2.20;99.90
2495;DHT22;1258;48.336;14.322;2024-03-02T05:38:48;2.10;99.90
2495;DHT22;1258;48.336;14.322;2024-03-02T05:41:15;2.20;99.90
2495;DHT22;1258;48.336;14.322;2024-03-02T05:43:41;2.20;99.90
2495;DHT22;1258;48.336;14.322;2024-03-02T05:46:08;2.20;99.90
2495;DHT22;1258;48.336;14.322;2024-03-02T05:48:37;2.30;99.90
2495;DHT22;1258;48.336;14.322;2024-03-02T05:51:04;2.40;99.90
2495;DHT22;1258;48.336;14.322;2024-03-02T05:53:30;2.60;99.90
2495;DHT22;1258;48.336;14.322;2024-03-02T05:55:57;2.70;99.90
2495;DHT22;1258;48.336;14.322;2024-03-02T05:58:24;2.70;99.90
2495;DHT22;1258;48.336;14.322;2024-03-02T06:01:03;2.80;99.90
2495;DHT22;1258;48.336;14.322;2024-03-02T06:03:32;2.70;99.90
2495;DHT22;1258;48.336;14.322;2024-03-02T06:06:02;2.80;99.90
2495;DHT22;1258;48.336;14.322;2024-03-02T06:08:29;2.50;99.90
2495;DHT22;1258;48.336;14.322;2024-03-02T06:10:56;2.40;99.90
2495;DHT22;1258;48.336;14.322;2024-03-02T06:13:23;2.30;99.90
2495;DHT22;1258;48.336;14.322;2024-03-02T06:15:51;2.30;99.90
2495;DHT22;1258;48.336;14.322;2024-03-02T06:18:18;2.30;99.90
2495;DHT22;1258;48.336;14.322;2024-03-02T06:20:44;2.20;99.90
2495;DHT22;1258;48.336;14.322;2024-03-02T06:23:12;2.30;99.90
2495;DHT22;1258;48.336;14.322;2024-03-02T06:25:39;2.10;99.90
2495;DHT22;1258;48.336;14.322;2024-03-02T06:28:06;2.10;99.90
2495;DHT22;1258;48.336;14.322;2024-03-02T06:30:33;2.00;99.90
2495;DHT22;1258;48.336;14.322;2024-03-02T06:33:00;2.00;99.90
2495;DHT22;1258;48.336;14.322;2024-03-02T06:35:27;2.00;99.90
2495;DHT22;1258;48.336;14.322;2024-03-02T06:37:53;2.10;99.90
2495;DHT22;1258;48.336;14.322;2024-03-02T06:40:22;2.00;99.90
2495;DHT22;1258;48.336;14.322;2024-03-02T06:42:48;2.00;99.90
2495;DHT22;1258;48.336;14.322;2024-03-02T06:45:15;1.90;99.90
2495;DHT22;1258;48.336;14.322;2024-03-02T06:47:42;1.90;99.90
2495;DHT22;1258;48.336;14.322;2024-03-02T06:50:09;1.90;99.90
2495;DHT22;1258;48.336;14.322;2024-03-02T06:52:36;1.80;99.90
2495;DHT22;1258;48.336;14.322;2024-03-02T06:55:03;1.80;99.90
2495;DHT22;1258;48.336;14.322;2024-03-02T06:57:32;1.80;99.90
2495;DHT22;1258;48.336;14.322;2024-03-02T06:59:59;1.80;99.90
2495;DHT22;1258;48.336;14.322;2024-03-02T07:02:25;1.80;99.90
2495;DHT22;1258;48.336;14.322;2024-03-02T07:04:53;2.00;99.90
2495;DHT22;1258;48.336;14.322;2024-03-02T07:07:20;1.90;99.90
2495;DHT22;1258;48.336;14.322;2024-03-02T07:09:47;1.80;99.90
2495;DHT22;1258;48.336;14.322;2024-03-02T07:12:14;1.90;99.90
2495;DHT22;1258;48.336;14.322;2024-03-02T07:14:42;2.00;99.90
2495;DHT22;1258;48.336;14.322;2024-03-02T07:17:36;2.00;99.90
2495;DHT22;1258;48.336;14.322;2024-03-02T07:20:04;2.10;99.90
2495;DHT22;1258;48.336;14.322;2024-03-02T07:22:32;2.20;99.90
2495;DHT22;1258;48.336;14.322;2024-03-02T07:24:59;2.20;99.90
2495;DHT22;1258;48.336;14.322;2024-03-02T07:27:25;2.40;99.90
2495;DHT22;1258;48.336;14.322;2024-03-02T07:29:54;2.40;99.90
2495;DHT22;1258;48.336;14.322;2024-03-02T07:32:21;2.40;99.90
2495;DHT22;1258;48.336;14.322;2024-03-02T07:34:48;2.50;99.90
2495;DHT22;1258;48.336;14.322;2024-03-02T07:37:16;2.70;99.90
2495;DHT22;1258;48.336;14.322;2024-03-02T07:39:45;2.90;99.90
2495;DHT22;1258;48.336;14.322;2024-03-02T07:42:12;3.00;99.90
2495;DHT22;1258;48.336;14.322;2024-03-02T07:44:39;3.10;99.90
2495;DHT22;1258;48.336;14.322;2024-03-02T07:47:07;3.10;99.90
2495;DHT22;1258;48.336;14.322;2024-03-02T07:49:34;3.10;99.90
2495;DHT22;1258;48.336;14.322;2024-03-02T07:52:01;3.10;99.90
2495;DHT22;1258;48.336;14.322;2024-03-02T07:54:28;3.10;99.90
2495;DHT22;1258;48.336;14.322;2024-03-02T07:56:55;3.10;99.90
2495;DHT22;1258;48.336;14.322;2024-03-02T07:59:22;3.30;99.90
2495;DHT22;1258;48.336;14.322;2024-03-02T08:01:49;3.20;99.90
2495;DHT22;1258;48.336;14.322;2024-03-02T08:04:18;3.60;99.90
2495;DHT22;1258;48.336;14.322;2024-03-02T08:06:45;3.60;99.90
2495;DHT22;1258;48.336;14.322;2024-03-02T08:09:12;3.60;99.90
2495;DHT22;1258;48.336;14.322;2024-03-02T08:11:39;3.80;99.90
2495;DHT22;1258;48.336;14.322;2024-03-02T08:14:06;4.00;99.90
2495;DHT22;1258;48.336;14.322;2024-03-02T08:16:33;3.90;99.90
2495;DHT22;1258;48.336;14.322;2024-03-02T08:19:00;3.90;99.90
2495;DHT22;1258;48.336;14.322;2024-03-02T08:21:28;3.60;99.90
2495;DHT22;1258;48.336;14.322;2024-03-02T08:23:56;3.70;99.90
2495;DHT22;1258;48.336;14.322;2024-03-02T08:26:24;3.90;99.90
2495;DHT22;1258;48.336;14.322;2024-03-02T08:28:53;4.10;99.90
2495;DHT22;1258;48.336;14.322;2024-03-02T08:31:20;4.30;99.90
2495;DHT22;1258;48.336;14.322;2024-03-02T08:33:46;4.40;99.90
2495;DHT22;1258;48.336;14.322;2024-03-02T08:36:14;4.50;99.90
2495;DHT22;1258;48.336;14.322;2024-03-02T08:38:42;4.60;99.90
2495;DHT22;1258;48.336;14.322;2024-03-02T08:41:09;4.40;99.90
2495;DHT22;1258;48.336;14.322;2024-03-02T08:43:38;4.40;99.90
2495;DHT22;1258;48.336;14.322;2024-03-02T08:46:07;4.30;99.90
2495;DHT22;1258;48.336;14.322;2024-03-02T08:48:34;4.40;99.90
2495;DHT22;1258;48.336;14.322;2024-03-02T08:51:01;4.50;99.90
2495;DHT22;1258;48.336;14.322;2024-03-02T08:53:30;4.40;99.90
2495;DHT22;1258;48.336;14.322;2024-03-02T08:55:58;4.50;99.90
2495;DHT22;1258;48.336;14.322;2024-03-02T08:58:25;4.50;99.90
2495;DHT22;1258;48.336;14.322;2024-03-02T09:00:52;4.60;99.90
2495;DHT22;1258;48.336;14.322;2024-03-02T09:03:19;4.70;99.90
2495;DHT22;1258;48.336;14.322;2024-03-02T09:05:45;4.70;99.90
2495;DHT22;1258;48.336;14.322;2024-03-02T09:08:13;4.60;99.90
2495;DHT22;1258;48.336;14.322;2024-03-02T09:10:40;4.70;99.90
2495;DHT22;1258;48.336;14.322;2024-03-02T09:13:08;4.70;99.90
2495;DHT22;1258;48.336;14.322;2024-03-02T09:15:35;4.70;99.90
2495;DHT22;1258;48.336;14.322;2024-03-02T09:18:03;4.80;99.90
2495;DHT22;1258;48.336;14.322;2024-03-02T09:20:30;4.80;99.90
2495;DHT22;1258;48.336;14.322;2024-03-02T09:22:57;4.80;99.90
2495;DHT22;1258;48.336;14.322;2024-03-02T09:25:24;4.70;99.90
2495;DHT22;1258;48.336;14.322;2024-03-02T09:27:51;4.60;99.90
2495;DHT22;1258;48.336;14.322;2024-03-02T09:30:19;4.50;99.90
2495;DHT22;1258;48.336;14.322;2024-03-02T09:32:46;4.50;99.90
2495;DHT22;1258;48.336;14.322;2024-03-02T09:35:12;4.50;99.90
2495;DHT22;1258;48.336;14.322;2024-03-02T09:37:39;4.50;99.90
2495;DHT22;1258;48.336;14.322;2024-03-02T09:40:07;4.60;99.90
2495;DHT22;1258;48.336;14.322;2024-03-02T09:42:34;4.60;99.90
2495;DHT22;1258;48.336;14.322;2024-03-02T09:45:02;4.60;99.90
2495;DHT22;1258;48.336;14.322;2024-03-02T09:47:30;4.70;99.90
2495;DHT22;1258;48.336;14.322;2024-03-02T09:49:57;4.70;99.90
2495;DHT22;1258;48.336;14.322;2024-03-02T09:52:24;4.70;99.90
2495;DHT22;1258;48.336;14.322;2024-03-02T09:54:51;4.80;99.90
2495;DHT22;1258;48.336;14.322;2024-03-02T09:57:18;4.80;99.90
2495;DHT22;1258;48.336;14.322;2024-03-02T09:59:45;4.80;99.90
2495;DHT22;1258;48.336;14.322;2024-03-02T10:02:12;4.90;99.90
2495;DHT22;1258;48.336;14.322;2024-03-02T10:04:40;4.90;99.90
2495;DHT22;1258;48.336;14.322;2024-03-02T10:07:11;4.90;99.90
2495;DHT22;1258;48.336;14.322;2024-03-02T10:09:38;4.90;99.90
2495;DHT22;1258;48.336;14.322;2024-03-02T10:12:06;4.90;99.90
2495;DHT22;1258;48.336;14.322;2024-03-02T10:14:33;4.90;99.90
2495;DHT22;1258;48.336;14.322;2024-03-02T10:17:02;4.90;99.90
2495;DHT22;1258;48.336;14.322;2024-03-02T10:19:30;4.70;99.90
2495;DHT22;1258;48.336;14.322;2024-03-02T10:22:00;4.50;99.90
2495;DHT22;1258;48.336;14.322;2024-03-02T10:24:34;4.40;99.90
2495;DHT22;1258;48.336;14.322;2024-03-02T10:27:02;4.40;99.90
2495;DHT22;1258;48.336;14.322;2024-03-02T10:29:29;4.50;99.90
2495;DHT22;1258;48.336;14.322;2024-03-02T10:31:56;4.50;99.90
2495;DHT22;1258;48.336;14.322;2024-03-02T10:34:24;4.60;99.90
2495;DHT22;1258;48.336;14.322;2024-03-02T10:36:51;4.70;99.90
2495;DHT22;1258;48.336;14.322;2024-03-02T10:39:19;4.70;99.90
2495;DHT22;1258;48.336;14.322;2024-03-02T10:41:48;4.70;99.90
2495;DHT22;1258;48.336;14.322;2024-03-02T10:44:16;4.60;99.90
2495;DHT22;1258;48.336;14.322;2024-03-02T10:46:44;4.70;99.90
2495;DHT22;1258;48.336;14.322;2024-03-02T10:49:12;4.80;99.90
2495;DHT22;1258;48.336;14.322;2024-03-02T10:51:39;4.90;99.90
2495;DHT22;1258;48.336;14.322;2024-03-02T10:54:05;4.80;99.90
2495;DHT22;1258;48.336;14.322;2024-03-02T10:56:38;4.80;99.90
2495;DHT22;1258;48.336;14.322;2024-03-02T10:59:14;4.90;99.90
2495;DHT22;1258;48.336;14.322;2024-03-02T11:01:43;4.70;99.90
2495;DHT22;1258;48.336;14.322;2024-03-02T11:04:13;4.70;99.90
2495;DHT22;1258;48.336;14.322;2024-03-02T11:06:44;4.80;99.90
2495;DHT22;1258;48.336;14.322;2024-03-02T11:09:12;4.90;99.90
2495;DHT22;1258;48.336;14.322;2024-03-02T11:11:43;4.90;99.90
2495;DHT22;1258;48.336;14.322;2024-03-02T11:14:13;4.90;99.90
2495;DHT22;1258;48.336;14.322;2024-03-02T11:16:43;4.80;99.90
2495;DHT22;1258;48.336;14.322;2024-03-02T11:19:12;4.80;99.90
2495;DHT22;1258;48.336;14.322;2024-03-02T11:21:40;5.00;99.90
2495;DHT22;1258;48.336;14.322;2024-03-02T11:24:29;4.90;99.90
2495;DHT22;1258;48.336;14.322;2024-03-02T11:27:01;4.70;99.90
2495;DHT22;1258;48.336;14.322;2024-03-02T11:29:44;4.80;99.90
2495;DHT22;1258;48.336;14.322;2024-03-02T11:32:19;4.80;99.90
2495;DHT22;1258;48.336;14.322;2024-03-02T11:34:48;4.80;99.90
2495;DHT22;1258;48.336;14.322;2024-03-02T11:37:16;4.80;99.90
2495;DHT22;1258;48.336;14.322;2024-03-02T11:39:44;4.80;99.90
2495;DHT22;1258;48.336;14.322;2024-03-02T11:42:13;4.70;99.90
2495;DHT22;1258;48.336;14.322;2024-03-02T11:44:43;4.80;99.90
2495;DHT22;1258;48.336;14.322;2024-03-02T11:47:12;5.00;99.90
2495;DHT22;1258;48.336;14.322;2024-03-02T11:49:42;4.90;99.90
2495;DHT22;1258;48.336;14.322;2024-03-02T11:52:11;4.80;99.90
2495;DHT22;1258;48.336;14.322;2024-03-02T11:54:41;5.00;99.90
2495;DHT22;1258;48.336;14.322;2024-03-02T11:57:14;4.90;99.90
2495;DHT22;1258;48.336;14.322;2024-03-02T11:59:41;4.70;99.90
2495;DHT22;1258;48.336;14.322;2024-03-02T12:02:14;4.80;99.90
2495;DHT22;1258;48.336;14.322;2024-03-02T12:04:42;4.80;99.90
2495;DHT22;1258;48.336;14.322;2024-03-02T12:07:10;4.80;99.90
2495;DHT22;1258;48.336;14.322;2024-03-02T12:09:37;4.80;99.90
2495;DHT22;1258;48.336;14.322;2024-03-02T12:12:05;5.00;99.90
2495;DHT22;1258;48.336;14.322;2024-03-02T12:14:35;4.90;99.90
2495;DHT22;1258;48.336;14.322;2024-03-02T12:17:03;5.00;99.90
2495;DHT22;1258;48.336;14.322;2024-03-02T12:19:31;5.00;99.90
2495;DHT22;1258;48.336;14.322;2024-03-02T12:21:58;4.60;99.90
2495;DHT22;1258;48.336;14.322;2024-03-02T12:24:27;4.40;99.90
2495;DHT22;1258;48.336;14.322;2024-03-02T12:26:54;4.30;99.90
2495;DHT22;1258;48.336;14.322;2024-03-02T12:29:21;4.30;99.90
2495;DHT22;1258;48.336;14.322;2024-03-02T12:31:51;4.20;99.90
2495;DHT22;1258;48.336;14.322;2024-03-02T12:34:19;4.50;99.90
2495;DHT22;1258;48.336;14.322;2024-03-02T12:36:46;4.60;99.90
2495;DHT22;1258;48.336;14.322;2024-03-02T12:39:15;4.90;99.90
2495;DHT22;1258;48.336;14.322;2024-03-02T12:41:42;5.00;99.90
2495;DHT22;1258;48.336;14.322;2024-03-02T12:44:09;4.60;99.90
2495;DHT22;1258;48.336;14.322;2024-03-02T12:46:36;4.70;99.90
2495;DHT22;1258;48.336;14.322;2024-03-02T12:49:10;4.30;99.90
2495;DHT22;1258;48.336;14.322;2024-03-02T12:51:38;4.40;99.90
2495;DHT22;1258;48.336;14.322;2024-03-02T12:54:06;4.20;99.90
2495;DHT22;1258;48.336;14.322;2024-03-02T12:56:33;4.40;99.90
2495;DHT22;1258;48.336;14.322;2024-03-02T12:59:00;4.80;99.90
2495;DHT22;1258;48.336;14.322;2024-03-02T13:01:27;5.10;99.90
2495;DHT22;1258;48.336;14.322;2024-03-02T13:03:54;5.30;99.90
2495;DHT22;1258;48.336;14.322;2024-03-02T13:06:25;5.50;99.90
2495;DHT22;1258;48.336;14.322;2024-03-02T13:08:53;5.50;99.90
2495;DHT22;1258;48.336;14.322;2024-03-02T13:11:21;5.50;99.90
2495;DHT22;1258;48.336;14.322;2024-03-02T13:13:49;5.60;99.90
2495;DHT22;1258;48.336;14.322;2024-03-02T13:16:16;5.60;99.90
2495;DHT22;1258;48.336;14.322;2024-03-02T13:18:45;5.70;99.90
2495;DHT22;1258;48.336;14.322;2024-03-02T13:21:11;5.60;99.90
2495;DHT22;1258;48.336;14.322;2024-03-02T13:23:40;5.30;99.90
2495;DHT22;1258;48.336;14.322;2024-03-02T13:26:06;5.50;99.90
2495;DHT22;1258;48.336;14.322;2024-03-02T13:28:36;5.60;99.90
2495;DHT22;1258;48.336;14.322;2024-03-02T13:31:03;5.80;99.90
2495;DHT22;1258;48.336;14.322;2024-03-02T13:33:30;5.70;99.90
2495;DHT22;1258;48.336;14.322;2024-03-02T13:35:58;5.80;99.90
2495;DHT22;1258;48.336;14.322;2024-03-02T13:38:26;4.60;99.90
2495;DHT22;1258;48.336;14.322;2024-03-02T13:40:54;4.40;99.90
2495;DHT22;1258;48.336;14.322;2024-03-02T13:43:21;4.60;99.90
2495;DHT22;1258;48.336;14.322;2024-03-02T13:45:49;4.70;99.90
2495;DHT22;1258;48.336;14.322;2024-03-02T13:48:17;5.10;99.90
2495;DHT22;1258;48.336;14.322;2024-03-02T13:50:44;4.70;99.90
2495;DHT22;1258;48.336;14.322;2024-03-02T13:53:12;5.10;99.90
2495;DHT22;1258;48.336;14.322;2024-03-02T13:55:38;5.20;99.90
2495;DHT22;1258;48.336;14.322;2024-03-02T13:58:09;5.40;99.90
2495;DHT22;1258;48.336;14.322;2024-03-02T14:00:36;5.20;99.90
2495;DHT22;1258;48.336;14.322;2024-03-02T14:03:04;4.70;99.90
2495;DHT22;1258;48.336;14.322;2024-03-02T14:05:32;5.00;99.90
2495;DHT22;1258;48.336;14.322;2024-03-02T14:07:59;5.20;99.90
2495;DHT22;1258;48.336;14.322;2024-03-02T14:10:27;4.70;99.90
2495;DHT22;1258;48.336;14.322;2024-03-02T14:12:54;4.70;99.90
2495;DHT22;1258;48.336;14.322;2024-03-02T14:15:23;4.60;99.90
2495;DHT22;1258;48.336;14.322;2024-03-02T14:17:50;4.80;99.90
2495;DHT22;1258;48.336;14.322;2024-03-02T14:20:17;4.90;99.90
2495;DHT22;1258;48.336;14.322;2024-03-02T14:22:47;4.60;99.90
2495;DHT22;1258;48.336;14.322;2024-03-02T14:25:14;4.90;99.90
2495;DHT22;1258;48.336;14.322;2024-03-02T14:27:41;5.20;99.90
2495;DHT22;1258;48.336;14.322;2024-03-02T14:30:09;5.40;99.90
2495;DHT22;1258;48.336;14.322;2024-03-02T14:32:38;5.10;99.90
2495;DHT22;1258;48.336;14.322;2024-03-02T14:35:05;5.10;99.90
2495;DHT22;1258;48.336;14.322;2024-03-02T14:37:35;5.30;99.90
2495;DHT22;1258;48.336;14.322;2024-03-02T14:40:03;5.20;99.90
2495;DHT22;1258;48.336;14.322;2024-03-02T14:42:32;5.10;99.90
2495;DHT22;1258;48.336;14.322;2024-03-02T14:44:59;5.20;99.90
2495;DHT22;1258;48.336;14.322;2024-03-02T14:47:27;5.20;99.90
2495;DHT22;1258;48.336;14.322;2024-03-02T14:49:55;5.00;99.90
2495;DHT22;1258;48.336;14.322;2024-03-02T14:52:22;5.00;99.90
2495;DHT22;1258;48.336;14.322;2024-03-02T14:54:48;5.10;99.90
2495;DHT22;1258;48.336;14.322;2024-03-02T14:57:15;5.30;99.90
2495;DHT22;1258;48.336;14.322;2024-03-02T14:59:42;5.40;99.90
2495;DHT22;1258;48.336;14.322;2024-03-02T15:02:09;5.10;99.90
2495;DHT22;1258;48.336;14.322;2024-03-02T15:04:36;5.20;99.90
2495;DHT22;1258;48.336;14.322;2024-03-02T15:07:04;5.20;99.90
2495;DHT22;1258;48.336;14.322;2024-03-02T15:09:31;5.30;99.90
2495;DHT22;1258;48.336;14.322;2024-03-02T15:12:00;5.40;99.90
2495;DHT22;1258;48.336;14.322;2024-03-02T15:14:27;5.50;99.90
2495;DHT22;1258;48.336;14.322;2024-03-02T15:16:54;5.30;99.90
2495;DHT22;1258;48.336;14.322;2024-03-02T15:19:21;5.40;99.90
2495;DHT22;1258;48.336;14.322;2024-03-02T15:21:48;5.30;99.90
2495;DHT22;1258;48.336;14.322;2024-03-02T15:24:17;5.40;99.90
2495;DHT22;1258;48.336;14.322;2024-03-02T15:26:43;5.10;99.90
2495;DHT22;1258;48.336;14.322;2024-03-02T15:29:10;5.30;99.90
2495;DHT22;1258;48.336;14.322;2024-03-02T15:31:37;5.30;99.90
2495;DHT22;1258;48.336;14.322;2024-03-02T15:34:04;5.40;99.90
2495;DHT22;1258;48.336;14.322;2024-03-02T15:36:33;5.00;99.90
2495;DHT22;1258;48.336;14.322;2024-03-02T15:39:00;5.20;99.90
2495;DHT22;1258;48.336;14.322;2024-03-02T15:41:29;5.30;99.90
2495;DHT22;1258;48.336;14.322;2024-03-02T15:43:56;4.90;99.90
2495;DHT22;1258;48.336;14.322;2024-03-02T15:46:23;4.80;99.90
2495;DHT22;1258;48.336;14.322;2024-03-02T15:48:50;5.00;99.90
2495;DHT22;1258;48.336;14.322;2024-03-02T15:51:17;5.10;99.90
2495;DHT22;1258;48.336;14.322;2024-03-02T15:53:43;5.00;99.90
2495;DHT22;1258;48.336;14.322;2024-03-02T15:56:10;5.10;99.90
2495;DHT22;1258;48.336;14.322;2024-03-02T15:58:38;5.10;99.90
2495;DHT22;1258;48.336;14.322;2024-03-02T16:01:05;4.90;99.90
2495;DHT22;1258;48.336;14.322;2024-03-02T16:03:32;4.60;99.90
2495;DHT22;1258;48.336;14.322;2024-03-02T16:05:59;4.40;99.90